sensor_id;sensor_type;location;lat;lon;timestamp;pressure;altitude;pressure_sealevel;temperature;humidity
12759;BME280;20944;47.048;15.390;2022-11-21T00:01:18;96941.22;;;2.76;100.00
12759;BME280;20944;47.048;15.390;2022-11-21T00:03:47;96882.88;;;2.46;100.00
12759;BME280;20944;47.048;15.390;2022-11-21T00:06:15;96950.69;;;2.80;100.00
12759;BME280;20944;47.048;15.390;2022-11-21T00:08:44;96939.38;;;2.92;100.00
12759;BME280;20944;47.048;15.390;2022-11-21T00:11:12;96950.50;;;3.03;100.00
12759;BME280;20944;47.048;15.390;2022-11-21T00:13:42;96943.66;;;2.96;100.00
12759;BME280;20944;47.048;15.390;2022-11-21T00:16:11;96911.06;;;2.75;100.00
12759;BME280;20944;47.048;15.390;2022-11-21T00:18:40;96939.44;;;2.86;100.00
12759;BME280;20944;47.048;15.390;2022-11-21T00:21:14;96940.34;;;2.83;100.00
12759;BME280;20944;47.048;15.390;2022-11-21T00:23:42;96812.63;;;1.98;100.00
12759;BME280;20944;47.048;15.390;2022-11-21T00:26:12;96946.38;;;2.79;100.00
12759;BME280;20944;47.048;15.390;2022-11-21T00:28:42;96915.47;;;2.67;100.00
12759;BME280;20944;47.048;15.390;2022-11-21T00:31:17;96862.16;;;2.49;100.00
12759;BME280;20944;47.048;15.390;2022-11-21T00:33:46;96909.34;;;2.76;100.00
12759;BME280;20944;47.048;15.390;2022-11-21T00:36:14;96935.19;;;2.79;100.00
12759;BME280;20944;47.048;15.390;2022-11-21T00:38:42;96810.84;;;2.08;100.00
12759;BME280;20944;47.048;15.390;2022-11-21T00:41:10;96911.97;;;2.71;100.00
12759;BME280;20944;47.048;15.390;2022-11-21T00:43:38;96924.03;;;2.74;100.00
12759;BME280;20944;47.048;15.390;2022-11-21T00:46:08;96930.97;;;2.67;100.00
12759;BME280;20944;47.048;15.390;2022-11-21T00:48:36;96917.97;;;2.75;100.00
12759;BME280;20944;47.048;15.390;2022-11-21T00:51:04;96891.44;;;2.51;100.00
12759;BME280;20944;47.048;15.390;2022-11-21T00:53:32;96917.16;;;2.71;100.00
12759;BME280;20944;47.048;15.390;2022-11-21T00:56:01;96907.69;;;2.67;100.00
12759;BME280;20944;47.048;15.390;2022-11-21T00:58:29;96865.59;;;2.50;100.00
12759;BME280;20944;47.048;15.390;2022-11-21T01:01:04;96895.63;;;2.70;100.00
12759;BME280;20944;47.048;15.390;2022-11-21T01:03:35;96906.75;;;2.76;100.00
12759;BME280;20944;47.048;15.390;2022-11-21T01:06:06;96907.63;;;2.75;100.00
12759;BME280;20944;47.048;15.390;2022-11-21T01:08:36;96902.41;;;2.79;100.00
12759;BME280;20944;47.048;15.390;2022-11-21T01:11:05;96906.72;;;2.80;100.00
12759;BME280;20944;47.048;15.390;2022-11-21T01:13:34;96896.38;;;2.80;100.00
12759;BME280;20944;47.048;15.390;2022-11-21T01:16:04;96904.94;;;2.87;100.00
12759;BME280;20944;47.048;15.390;2022-11-21T01:18:32;96909.38;;;2.73;100.00
12759;BME280;20944;47.048;15.390;2022-11-21T01:21:03;96907.72;;;2.64;100.00
12759;BME280;20944;47.048;15.390;2022-11-21T01:23:31;96899.13;;;2.60;100.00
12759;BME280;20944;47.048;15.390;2022-11-21T01:26:00;96872.63;;;2.35;100.00
12759;BME280;20944;47.048;15.390;2022-11-21T01:28:29;96891.47;;;2.50;100.00
12759;BME280;20944;47.048;15.390;2022-11-21T01:31:02;96894.06;;;2.45;100.00
12759;BME280;20944;47.048;15.390;2022-11-21T01:33:31;96893.22;;;2.44;100.00
12759;BME280;20944;47.048;15.390;2022-11-21T01:36:09;96888.09;;;2.38;100.00
12759;BME280;20944;47.048;15.390;2022-11-21T01:38:38;96900.97;;;2.44;100.00
12759;BME280;20944;47.048;15.390;2022-11-21T01:41:06;96890.72;;;2.34;100.00
12759;BME280;20944;47.048;15.390;2022-11-21T01:43:35;96876.13;;;2.28;100.00
12759;BME280;20944;47.048;15.390;2022-11-21T01:46:07;96865.81;;;2.24;100.00
12759;BME280;20944;47.048;15.390;2022-11-21T01:48:40;96877.81;;;2.32;100.00
12759;BME280;20944;47.048;15.390;2022-11-21T01:51:15;96882.94;;;2.37;100.00
12759;BME280;20944;47.048;15.390;2022-11-21T01:53:50;96879.59;;;2.27;100.00
12759;BME280;20944;47.048;15.390;2022-11-21T01:56:21;96877.00;;;2.27;100.00
12759;BME280;20944;47.048;15.390;2022-11-21T01:58:51;96875.28;;;2.28;100.00
12759;BME280;20944;47.048;15.390;2022-11-21T02:01:22;96877.81;;;2.32;100.00
12759;BME280;20944;47.048;15.390;2022-11-21T02:03:51;96877.84;;;2.29;100.00
12759;BME280;20944;47.048;15.390;2022-11-21T02:06:22;96874.31;;;2.38;100.00
12759;BME280;20944;47.048;15.390;2022-11-21T02:08:51;96876.97;;;2.33;100.00
12759;BME280;20944;47.048;15.390;2022-11-21T02:11:27;96870.91;;;2.34;100.00
12759;BME280;20944;47.048;15.390;2022-11-21T02:13:58;96876.91;;;2.36;100.00
12759;BME280;20944;47.048;15.390;2022-11-21T02:16:26;96874.34;;;2.36;100.00
12759;BME280;20944;47.048;15.390;2022-11-21T02:18:55;96864.03;;;2.33;100.00
12759;BME280;20944;47.048;15.390;2022-11-21T02:21:33;96846.00;;;2.24;100.00
12759;BME280;20944;47.048;15.390;2022-11-21T02:24:12;96800.56;;;1.97;100.00
12759;BME280;20944;47.048;15.390;2022-11-21T02:26:43;96833.16;;;2.13;100.00
12759;BME280;20944;47.048;15.390;2022-11-21T02:29:13;96849.34;;;2.37;100.00
12759;BME280;20944;47.048;15.390;2022-11-21T02:31:41;96852.72;;;2.45;100.00
12759;BME280;20944;47.048;15.390;2022-11-21T02:34:09;96735.25;;;1.83;100.00
12759;BME280;20944;47.048;15.390;2022-11-21T02:36:40;96845.00;;;2.42;100.00
12759;BME280;20944;47.048;15.390;2022-11-21T02:39:12;96833.91;;;2.26;100.00
12759;BME280;20944;47.048;15.390;2022-11-21T02:41:50;96833.88;;;2.34;100.00
12759;BME280;20944;47.048;15.390;2022-11-21T02:44:24;96823.56;;;2.26;100.00
12759;BME280;20944;47.048;15.390;2022-11-21T02:46:54;96796.22;;;2.02;100.00
12759;BME280;20944;47.048;15.390;2022-11-21T02:52:13;96826.16;;;2.29;100.00
12759;BME280;20944;47.048;15.390;2022-11-21T02:54:41;96825.25;;;2.32;100.00
12759;BME280;20944;47.048;15.390;2022-11-21T02:57:11;96820.84;;;2.46;100.00
12759;BME280;20944;47.048;15.390;2022-11-21T02:59:39;96819.13;;;2.47;100.00
12759;BME280;20944;47.048;15.390;2022-11-21T03:02:07;96814.81;;;2.44;100.00
12759;BME280;20944;47.048;15.390;2022-11-21T03:04:35;96807.06;;;2.42;100.00
12759;BME280;20944;47.048;15.390;2022-11-21T03:07:03;96813.97;;;2.42;100.00
12759;BME280;20944;47.048;15.390;2022-11-21T03:09:31;96808.78;;;2.43;100.00
12759;BME280;20944;47.048;15.390;2022-11-21T03:12:04;96796.78;;;2.36;100.00
12759;BME280;20944;47.048;15.390;2022-11-21T03:14:34;96820.69;;;2.61;100.00
12759;BME280;20944;47.048;15.390;2022-11-21T03:17:03;96716.16;;;1.99;100.00
12759;BME280;20944;47.048;15.390;2022-11-21T03:19:31;96808.66;;;2.56;100.00
12759;BME280;20944;47.048;15.390;2022-11-21T03:21:59;96806.94;;;2.56;100.00
12759;BME280;20944;47.048;15.390;2022-11-21T03:24:27;96787.19;;;2.49;100.00
12759;BME280;20944;47.048;15.390;2022-11-21T03:26:56;96806.13;;;2.53;100.00
12759;BME280;20944;47.048;15.390;2022-11-21T03:29:24;96812.25;;;2.42;100.00
12759;BME280;20944;47.048;15.390;2022-11-21T03:31:53;96814.03;;;2.36;100.00
12759;BME280;20944;47.048;15.390;2022-11-21T03:34:21;96812.44;;;2.23;100.00
12759;BME280;20944;47.048;15.390;2022-11-21T03:36:51;96809.88;;;2.16;100.00
12759;BME280;20944;47.048;15.390;2022-11-21T03:39:19;96808.22;;;2.09;100.00
12759;BME280;20944;47.048;15.390;2022-11-21T03:41:47;96804.78;;;2.07;100.00
12759;BME280;20944;47.048;15.390;2022-11-21T03:44:15;96810.88;;;1.99;100.00
12759;BME280;20944;47.048;15.390;2022-11-21T03:46:45;96806.63;;;1.92;100.00
12759;BME280;20944;47.048;15.390;2022-11-21T03:49:15;96801.44;;;1.95;100.00
12759;BME280;20944;47.048;15.390;2022-11-21T03:51:43;96803.16;;;1.97;100.00
12759;BME280;20944;47.048;15.390;2022-11-21T03:54:12;96804.06;;;1.90;100.00
12759;BME280;20944;47.048;15.390;2022-11-21T03:56:40;96801.44;;;1.93;100.00
12759;BME280;20944;47.048;15.390;2022-11-21T03:59:08;96812.63;;;1.97;100.00
12759;BME280;20944;47.048;15.390;2022-11-21T04:01:36;96808.25;;;2.06;100.00
12759;BME280;20944;47.048;15.390;2022-11-21T04:04:04;96808.25;;;2.05;100.00
12759;BME280;20944;47.048;15.390;2022-11-21T04:06:34;96771.44;;;1.78;100.00
12759;BME280;20944;47.048;15.390;2022-11-21T04:09:02;96812.56;;;2.04;100.00
12759;BME280;20944;47.048;15.390;2022-11-21T04:11:31;96776.56;;;1.84;100.00
12759;BME280;20944;47.048;15.390;2022-11-21T04:13:59;96818.63;;;1.99;100.00
12759;BME280;20944;47.048;15.390;2022-11-21T04:16:27;96810.94;;;1.93;100.00
12759;BME280;20944;47.048;15.390;2022-11-21T04:18:55;96807.50;;;1.92;100.00
12759;BME280;20944;47.048;15.390;2022-11-21T04:21:23;96822.94;;;2.03;100.00
12759;BME280;20944;47.048;15.390;2022-11-21T04:23:53;96822.03;;;2.05;100.00
12759;BME280;20944;47.048;15.390;2022-11-21T04:26:21;96820.28;;;2.07;100.00
12759;BME280;20944;47.048;15.390;2022-11-21T04:28:49;96766.19;;;1.87;100.00
12759;BME280;20944;47.048;15.390;2022-11-21T04:31:17;96832.31;;;2.14;100.00
12759;BME280;20944;47.048;15.390;2022-11-21T04:33:45;96694.34;;;1.29;100.00
12759;BME280;20944;47.048;15.390;2022-11-21T04:36:13;96827.09;;;2.17;100.00
12759;BME280;20944;47.048;15.390;2022-11-21T04:38:41;96822.78;;;2.21;100.00
12759;BME280;20944;47.048;15.390;2022-11-21T04:41:11;96810.66;;;2.29;100.00
12759;BME280;20944;47.048;15.390;2022-11-21T04:43:39;96808.13;;;2.23;100.00
12759;BME280;20944;47.048;15.390;2022-11-21T04:46:07;96804.72;;;2.13;100.00
12759;BME280;20944;47.048;15.390;2022-11-21T04:48:35;96801.38;;;2.04;100.00
12759;BME280;20944;47.048;15.390;2022-11-21T04:51:03;96812.66;;;1.92;100.00
12759;BME280;20944;47.048;15.390;2022-11-21T04:53:31;96808.44;;;1.79;100.00
12759;BME280;20944;47.048;15.390;2022-11-21T04:56:07;96808.41;;;1.85;100.00
12759;BME280;20944;47.048;15.390;2022-11-21T04:58:36;96804.06;;;1.88;100.00
12759;BME280;20944;47.048;15.390;2022-11-21T05:01:05;96803.22;;;1.89;100.00
12759;BME280;20944;47.048;15.390;2022-11-21T05:03:34;96806.63;;;1.96;100.00
12759;BME280;20944;47.048;15.390;2022-11-21T05:06:03;96791.06;;;2.02;100.00
12759;BME280;20944;47.048;15.390;2022-11-21T05:08:31;96797.03;;;2.09;100.00
12759;BME280;20944;47.048;15.390;2022-11-21T05:10:59;96784.19;;;2.01;100.00
12759;BME280;20944;47.048;15.390;2022-11-21T05:13:46;96783.25;;;2.10;100.00
12759;BME280;20944;47.048;15.390;2022-11-21T05:16:14;96772.88;;;2.13;100.00
12759;BME280;20944;47.048;15.390;2022-11-21T05:18:42;96775.47;;;2.14;100.00
12759;BME280;20944;47.048;15.390;2022-11-21T05:21:10;96776.41;;;2.04;100.00
12759;BME280;20944;47.048;15.390;2022-11-21T05:23:38;96779.88;;;2.02;100.00
12759;BME280;20944;47.048;15.390;2022-11-21T05:26:07;96784.19;;;2.00;100.00
12759;BME280;20944;47.048;15.390;2022-11-21T05:28:35;96785.94;;;1.98;100.00
12759;BME280;20944;47.048;15.390;2022-11-21T05:31:04;96778.19;;;1.98;100.00
12759;BME280;20944;47.048;15.390;2022-11-21T05:33:32;96788.41;;;2.10;100.00
12759;BME280;20944;47.048;15.390;2022-11-21T05:36:00;96780.66;;;2.11;100.00
12759;BME280;20944;47.048;15.390;2022-11-21T05:38:29;96790.88;;;2.24;100.00
12759;BME280;20944;47.048;15.390;2022-11-21T05:40:57;96791.78;;;2.21;100.00
12759;BME280;20944;47.048;15.390;2022-11-21T05:43:25;96793.56;;;2.14;100.00
12759;BME280;20944;47.048;15.390;2022-11-21T05:46:13;96794.47;;;2.09;100.00
12759;BME280;20944;47.048;15.390;2022-11-21T05:48:42;96785.97;;;1.88;100.00
12759;BME280;20944;47.048;15.390;2022-11-21T05:51:10;96785.97;;;1.92;100.00
12759;BME280;20944;47.048;15.390;2022-11-21T05:53:39;96786.84;;;1.87;100.00
12759;BME280;20944;47.048;15.390;2022-11-21T05:56:08;96797.19;;;1.89;100.00
12759;BME280;20944;47.048;15.390;2022-11-21T05:58:37;96798.03;;;1.91;100.00
12759;BME280;20944;47.048;15.390;2022-11-21T06:01:07;96795.38;;;2.00;100.00
12759;BME280;20944;47.048;15.390;2022-11-21T06:03:38;96789.38;;;1.97;100.00
12759;BME280;20944;47.048;15.390;2022-11-21T06:06:07;96772.25;;;1.85;100.00
12759;BME280;20944;47.048;15.390;2022-11-21T06:08:37;96795.44;;;1.93;100.00
12759;BME280;20944;47.048;15.390;2022-11-21T06:11:06;96796.31;;;1.90;100.00
12759;BME280;20944;47.048;15.390;2022-11-21T06:13:35;96796.34;;;1.85;100.00
12759;BME280;20944;47.048;15.390;2022-11-21T06:16:05;96792.91;;;1.86;100.00
12759;BME280;20944;47.048;15.390;2022-11-21T06:18:35;96786.03;;;1.85;100.00
12759;BME280;20944;47.048;15.390;2022-11-21T06:21:06;96695.28;;;1.21;100.00
12759;BME280;20944;47.048;15.390;2022-11-21T06:23:35;96790.41;;;1.77;100.00
12759;BME280;20944;47.048;15.390;2022-11-21T06:26:05;96778.38;;;1.72;100.00
12759;BME280;20944;47.048;15.390;2022-11-21T06:28:36;96792.94;;;1.83;100.00
12759;BME280;20944;47.048;15.390;2022-11-21T06:31:04;96780.06;;;1.77;100.00
12759;BME280;20944;47.048;15.390;2022-11-21T06:33:33;96797.97;;;2.02;100.00
12759;BME280;20944;47.048;15.390;2022-11-21T06:36:02;96639.53;;;0.98;100.00
12759;BME280;20944;47.048;15.390;2022-11-21T06:38:33;96800.59;;;1.94;100.00
12759;BME280;20944;47.048;15.390;2022-11-21T06:41:05;96795.38;;;2.00;100.00
12759;BME280;20944;47.048;15.390;2022-11-21T06:43:33;96803.94;;;2.08;100.00
12759;BME280;20944;47.048;15.390;2022-11-21T06:46:01;96803.88;;;2.13;100.00
12759;BME280;20944;47.048;15.390;2022-11-21T06:48:30;96810.72;;;2.19;100.00
12759;BME280;20944;47.048;15.390;2022-11-21T06:51:02;96803.84;;;2.17;100.00
12759;BME280;20944;47.048;15.390;2022-11-21T06:53:31;96748.06;;;1.94;100.00
12759;BME280;20944;47.048;15.390;2022-11-21T06:56:01;96798.59;;;2.28;100.00
12759;BME280;20944;47.048;15.390;2022-11-21T06:58:29;96797.69;;;2.34;100.00
12759;BME280;20944;47.048;15.390;2022-11-21T07:01:03;96793.28;;;2.43;100.00
12759;BME280;20944;47.048;15.390;2022-11-21T07:03:32;96801.84;;;2.49;100.00
12759;BME280;20944;47.048;15.390;2022-11-21T07:06:00;96798.31;;;2.57;100.00
12759;BME280;20944;47.048;15.390;2022-11-21T07:08:29;96796.56;;;2.61;100.00
12759;BME280;20944;47.048;15.390;2022-11-21T07:11:01;96675.75;;;1.94;100.00
12759;BME280;20944;47.048;15.390;2022-11-21T07:13:50;96811.06;;;2.74;100.00
12759;BME280;20944;47.048;15.390;2022-11-21T07:16:18;96778.59;;;2.49;100.00
12759;BME280;20944;47.048;15.390;2022-11-21T07:18:46;96804.25;;;2.67;100.00
12759;BME280;20944;47.048;15.390;2022-11-21T07:21:14;96820.69;;;2.64;100.00
12759;BME280;20944;47.048;15.390;2022-11-21T07:23:42;96816.41;;;2.57;100.00
12759;BME280;20944;47.048;15.390;2022-11-21T07:26:12;96816.41;;;2.60;100.00
12759;BME280;20944;47.048;15.390;2022-11-21T07:28:41;96812.91;;;2.64;100.00
12759;BME280;20944;47.048;15.390;2022-11-21T07:31:09;96828.31;;;2.74;100.00
12759;BME280;20944;47.048;15.390;2022-11-21T07:33:40;96788.75;;;2.65;100.00
12759;BME280;20944;47.048;15.390;2022-11-21T07:36:09;96810.97;;;2.85;100.00
12759;BME280;20944;47.048;15.390;2022-11-21T07:38:37;96792.84;;;2.86;100.00
12759;BME280;20944;47.048;15.390;2022-11-21T07:41:07;96803.16;;;2.89;100.00
12759;BME280;20944;47.048;15.390;2022-11-21T07:43:37;96806.56;;;2.93;100.00
12759;BME280;20944;47.048;15.390;2022-11-21T07:46:05;96806.47;;;3.01;100.00
12759;BME280;20944;47.048;15.390;2022-11-21T07:48:33;96810.78;;;3.03;100.00
12759;BME280;20944;47.048;15.390;2022-11-21T07:51:05;96789.34;;;2.90;100.00
12759;BME280;20944;47.048;15.390;2022-11-21T07:53:33;96806.28;;;3.17;100.00
12759;BME280;20944;47.048;15.390;2022-11-21T07:56:01;96811.28;;;3.31;100.00
12759;BME280;20944;47.048;15.390;2022-11-21T07:58:30;96786.44;;;3.18;100.00
12759;BME280;20944;47.048;15.390;2022-11-21T08:01:02;96733.25;;;2.95;100.00
12759;BME280;20944;47.048;15.390;2022-11-21T08:03:31;96810.22;;;3.47;100.00
12759;BME280;20944;47.048;15.390;2022-11-21T08:06:01;96788.72;;;3.39;100.00
12759;BME280;20944;47.048;15.390;2022-11-21T08:08:30;96809.22;;;3.56;100.00
12759;BME280;20944;47.048;15.390;2022-11-21T08:11:03;96802.41;;;3.52;100.00
12759;BME280;20944;47.048;15.390;2022-11-21T08:13:31;96801.50;;;3.53;100.00
12759;BME280;20944;47.048;15.390;2022-11-21T08:16:02;96804.06;;;3.55;100.00
12759;BME280;20944;47.048;15.390;2022-11-21T08:18:31;96805.00;;;3.52;100.00
12759;BME280;20944;47.048;15.390;2022-11-21T08:21:00;96792.88;;;3.54;100.00
12759;BME280;20944;47.048;15.390;2022-11-21T08:23:29;96791.91;;;3.61;100.00
12759;BME280;20944;47.048;15.390;2022-11-21T08:25:57;96787.47;;;3.69;100.00
12759;BME280;20944;47.048;15.390;2022-11-21T08:28:26;96765.84;;;3.72;100.00
12759;BME280;20944;47.048;15.390;2022-11-21T08:30:54;96777.69;;;3.88;100.00
12759;BME280;20944;47.048;15.390;2022-11-21T08:33:24;96782.72;;;3.96;100.00
12759;BME280;20944;47.048;15.390;2022-11-21T08:35:52;96762.28;;;3.79;100.00
12759;BME280;20944;47.048;15.390;2022-11-21T08:38:20;96775.59;;;4.12;100.00
12759;BME280;20944;47.048;15.390;2022-11-21T08:40:48;96759.00;;;4.20;100.00
12759;BME280;20944;47.048;15.390;2022-11-21T08:43:43;96754.47;;;4.35;100.00
12759;BME280;20944;47.048;15.390;2022-11-21T08:46:11;96775.53;;;4.64;100.00
12759;BME280;20944;47.048;15.390;2022-11-21T08:48:41;96777.09;;;4.74;100.00
12759;BME280;20944;47.048;15.390;2022-11-21T08:51:09;96782.28;;;4.74;100.00
12759;BME280;20944;47.048;15.390;2022-11-21T08:53:37;96790.19;;;4.67;100.00
12759;BME280;20944;47.048;15.390;2022-11-21T08:56:05;96761.31;;;4.37;100.00
12759;BME280;20944;47.048;15.390;2022-11-21T08:58:33;96779.00;;;4.63;100.00
12759;BME280;20944;47.048;15.390;2022-11-21T09:01:01;96766.97;;;4.60;100.00
12759;BME280;20944;47.048;15.390;2022-11-21T09:03:30;96778.09;;;4.67;100.00
12759;BME280;20944;47.048;15.390;2022-11-21T09:05:59;96738.91;;;4.35;100.00
12759;BME280;20944;47.048;15.390;2022-11-21T09:08:28;96787.97;;;4.47;100.00
12759;BME280;20944;47.048;15.390;2022-11-21T09:10:57;96769.25;;;4.29;100.00
12759;BME280;20944;47.048;15.390;2022-11-21T09:13:25;96775.03;;;4.44;100.00
12759;BME280;20944;47.048;15.390;2022-11-21T09:15:54;96795.31;;;4.70;100.00
12759;BME280;20944;47.048;15.390;2022-11-21T09:18:45;96792.47;;;4.85;100.00
12759;BME280;20944;47.048;15.390;2022-11-21T09:21:16;96785.41;;;4.92;100.00
12759;BME280;20944;47.048;15.390;2022-11-21T09:23:44;96781.78;;;5.00;100.00
12759;BME280;20944;47.048;15.390;2022-11-21T09:26:13;96784.22;;;5.09;100.00
12759;BME280;20944;47.048;15.390;2022-11-21T09:28:41;96776.09;;;5.25;100.00
12759;BME280;20944;47.048;15.390;2022-11-21T09:31:09;96751.47;;;5.43;100.00
12759;BME280;20944;47.048;15.390;2022-11-21T09:33:37;96779.44;;;5.70;100.00
12759;BME280;20944;47.048;15.390;2022-11-21T09:36:05;96781.75;;;5.82;100.00
12759;BME280;20944;47.048;15.390;2022-11-21T09:38:35;96773.66;;;5.98;100.00
12759;BME280;20944;47.048;15.390;2022-11-21T09:41:12;96768.19;;;6.08;100.00
12759;BME280;20944;47.048;15.390;2022-11-21T09:44:01;96764.53;;;6.17;100.00
12759;BME280;20944;47.048;15.390;2022-11-21T09:46:39;96733.25;;;6.18;100.00
12759;BME280;20944;47.048;15.390;2022-11-21T09:49:11;96765.56;;;6.44;100.00
12759;BME280;20944;47.048;15.390;2022-11-21T09:51:43;96765.56;;;6.44;100.00
12759;BME280;20944;47.048;15.390;2022-11-21T09:54:17;96761.47;;;6.34;100.00
12759;BME280;20944;47.048;15.390;2022-11-21T09:56:46;96757.13;;;6.34;100.00
12759;BME280;20944;47.048;15.390;2022-11-21T09:59:30;96614.56;;;5.48;100.00
12759;BME280;20944;47.048;15.390;2022-11-21T10:01:59;96738.22;;;6.29;100.00
12759;BME280;20944;47.048;15.390;2022-11-21T10:04:28;96753.38;;;6.46;100.00
12759;BME280;20944;47.048;15.390;2022-11-21T10:07:01;96747.56;;;6.69;100.00
12759;BME280;20944;47.048;15.390;2022-11-21T10:09:48;96750.31;;;6.95;100.00
12759;BME280;20944;47.048;15.390;2022-11-21T10:12:30;96749.50;;;6.93;100.00
12759;BME280;20944;47.048;15.390;2022-11-21T10:15:18;96739.03;;;6.95;100.00
12759;BME280;20944;47.048;15.390;2022-11-21T10:18:01;96728.28;;;7.07;100.00
12759;BME280;20944;47.048;15.390;2022-11-21T10:20:47;96724.66;;;7.13;100.00
12759;BME280;20944;47.048;15.390;2022-11-21T10:23:38;96711.00;;;7.05;100.00
12759;BME280;20944;47.048;15.390;2022-11-21T10:26:21;96709.00;;;6.83;100.00
12759;BME280;20944;47.048;15.390;2022-11-21T10:28:52;96723.47;;;6.93;100.00
12759;BME280;20944;47.048;15.390;2022-11-21T10:31:21;96729.22;;;7.05;100.00
12759;BME280;20944;47.048;15.390;2022-11-21T10:33:50;96724.47;;;7.19;100.00
12759;BME280;20944;47.048;15.390;2022-11-21T10:36:25;96681.56;;;7.01;100.00
12759;BME280;20944;47.048;15.390;2022-11-21T10:38:59;96708.72;;;7.23;100.00
12759;BME280;20944;47.048;15.390;2022-11-21T10:41:38;96701.59;;;7.28;100.00
12759;BME280;20944;47.048;15.390;2022-11-21T10:44:13;96715.25;;;7.37;100.00
12759;BME280;20944;47.048;15.390;2022-11-21T10:47:01;96719.63;;;7.36;100.00
12759;BME280;20944;47.048;15.390;2022-11-21T10:49:33;96708.53;;;7.29;100.00
12759;BME280;20944;47.048;15.390;2022-11-21T10:52:05;96701.53;;;7.32;100.00
12759;BME280;20944;47.048;15.390;2022-11-21T10:55:01;96675.78;;;7.21;100.00
12759;BME280;20944;47.048;15.390;2022-11-21T10:57:37;96660.44;;;7.12;100.00
12759;BME280;20944;47.048;15.390;2022-11-21T11:00:18;96680.06;;;7.23;100.00
12759;BME280;20944;47.048;15.390;2022-11-21T11:03:00;96688.00;;;7.47;100.00
12759;BME280;20944;47.048;15.390;2022-11-21T11:05:31;96653.09;;;7.52;100.00
12759;BME280;20944;47.048;15.390;2022-11-21T11:08:02;96691.94;;;7.88;100.00
12759;BME280;20944;47.048;15.390;2022-11-21T11:10:32;96694.41;;;7.93;100.00
12759;BME280;20944;47.048;15.390;2022-11-21T11:13:09;96690.22;;;7.87;100.00
12759;BME280;20944;47.048;15.390;2022-11-21T11:16:15;96641.94;;;7.47;100.00
12759;BME280;20944;47.048;15.390;2022-11-21T11:18:53;96682.84;;;7.73;100.00
12759;BME280;20944;47.048;15.390;2022-11-21T11:21:24;96683.13;;;7.91;100.00
12759;BME280;20944;47.048;15.390;2022-11-21T11:23:54;96677.06;;;8.17;100.00
12759;BME280;20944;47.048;15.390;2022-11-21T11:26:32;96662.75;;;8.28;100.00
12759;BME280;20944;47.048;15.390;2022-11-21T11:29:08;96680.19;;;8.53;100.00
12759;BME280;20944;47.048;15.390;2022-11-21T11:31:41;96656.06;;;8.46;100.00
12759;BME280;20944;47.048;15.390;2022-11-21T11:34:13;96670.66;;;8.77;100.00
12759;BME280;20944;47.048;15.390;2022-11-21T11:36:52;96666.69;;;8.90;100.00
12759;BME280;20944;47.048;15.390;2022-11-21T11:39:31;96664.31;;;9.07;100.00
12759;BME280;20944;47.048;15.390;2022-11-21T11:42:23;96663.59;;;9.26;100.00
12759;BME280;20944;47.048;15.390;2022-11-21T11:45:27;96650.44;;;9.51;100.00
12759;BME280;20944;47.048;15.390;2022-11-21T11:48:16;96646.00;;;9.75;100.00
12759;BME280;20944;47.048;15.390;2022-11-21T11:50:48;96647.50;;;9.80;100.00
12759;BME280;20944;47.048;15.390;2022-11-21T11:53:19;96644.88;;;9.80;100.00
12759;BME280;20944;47.048;15.390;2022-11-21T11:55:50;96610.06;;;9.58;100.00
12759;BME280;20944;47.048;15.390;2022-11-21T11:58:24;96608.88;;;9.21;100.00
12759;BME280;20944;47.048;15.390;2022-11-21T12:00:59;96645.53;;;9.19;100.00
12759;BME280;20944;47.048;15.390;2022-11-21T12:03:36;96644.53;;;9.00;100.00
12759;BME280;20944;47.048;15.390;2022-11-21T12:06:11;96640.31;;;8.73;100.00
12759;BME280;20944;47.048;15.390;2022-11-21T12:08:51;96634.06;;;8.53;100.00
12759;BME280;20944;47.048;15.390;2022-11-21T12:11:28;96639.00;;;8.37;100.00
12759;BME280;20944;47.048;15.390;2022-11-21T12:14:26;96648.63;;;8.34;100.00
12759;BME280;20944;47.048;15.390;2022-11-21T12:17:19;96591.13;;;7.87;100.00
12759;BME280;20944;47.048;15.390;2022-11-21T12:19:49;96507.16;;;7.26;100.00
12759;BME280;20944;47.048;15.390;2022-11-21T12:22:19;96641.31;;;7.94;100.00
12759;BME280;20944;47.048;15.390;2022-11-21T12:24:47;96647.00;;;8.06;100.00
12759;BME280;20944;47.048;15.390;2022-11-21T12:27:20;96643.25;;;8.40;100.00
12759;BME280;20944;47.048;15.390;2022-11-21T12:30:27;96578.50;;;8.50;100.00
12759;BME280;20944;47.048;15.390;2022-11-21T12:33:04;96608.28;;;8.91;100.00
12759;BME280;20944;47.048;15.390;2022-11-21T12:36:02;96630.19;;;9.34;100.00
12759;BME280;20944;47.048;15.390;2022-11-21T12:38:56;96604.31;;;9.04;100.00
12759;BME280;20944;47.048;15.390;2022-11-21T12:41:31;96625.13;;;8.84;100.00
12759;BME280;20944;47.048;15.390;2022-11-21T12:44:30;96631.72;;;8.46;100.00
12759;BME280;20944;47.048;15.390;2022-11-21T12:47:16;96622.44;;;8.12;100.00
12759;BME280;20944;47.048;15.390;2022-11-21T12:49:51;96627.22;;;7.99;100.00
12759;BME280;20944;47.048;15.390;2022-11-21T12:52:47;96568.16;;;7.98;100.00
12759;BME280;20944;47.048;15.390;2022-11-21T12:55:35;96572.09;;;8.58;100.00
12759;BME280;20944;47.048;15.390;2022-11-21T12:58:16;96590.75;;;9.16;100.00
12759;BME280;20944;47.048;15.390;2022-11-21T13:00:57;96583.06;;;9.78;100.00
12759;BME280;20944;47.048;15.390;2022-11-21T13:03:44;96571.03;;;10.93;100.00
12759;BME280;20944;47.048;15.390;2022-11-21T13:06:18;96587.03;;;11.24;100.00
12759;BME280;20944;47.048;15.390;2022-11-21T13:08:49;96577.06;;;10.37;100.00
12759;BME280;20944;47.048;15.390;2022-11-21T13:11:28;96588.66;;;10.51;100.00
12759;BME280;20944;47.048;15.390;2022-11-21T13:14:20;96557.81;;;11.15;100.00
12759;BME280;20944;47.048;15.390;2022-11-21T13:17:02;96573.00;;;12.65;68.74
12759;BME280;20944;47.048;15.390;2022-11-21T13:19:36;96569.38;;;13.63;64.10